createdAt,value
2018-12-03T00:02:24.737Z,17.53
2018-12-03T00:05:07.282Z,15.27
2018-12-03T00:07:50.531Z,21.13
2018-12-03T00:10:31.457Z,14.27
2018-12-03T00:13:12.111Z,17.10
2018-12-03T00:15:52.747Z,16.40
2018-12-03T00:18:33.516Z,17.90
2018-12-03T00:21:14.762Z,20.07
2018-12-03T00:23:55.895Z,17.30
2018-12-03T00:26:36.962Z,19.40
2018-12-03T00:29:18.222Z,20.97
2018-12-03T00:31:58.946Z,13.17
2018-12-03T00:34:39.475Z,17.60
2018-12-03T00:37:20.410Z,16.53
2018-12-03T00:40:01.342Z,19.43
2018-12-03T00:42:42.358Z,21.37
2018-12-03T00:45:23.238Z,17.00
2018-12-03T00:48:05.359Z,18.27
2018-12-03T00:50:46.098Z,15.50
2018-12-03T00:53:27.643Z,17.07
2018-12-03T00:56:08.670Z,16.17
2018-12-03T00:58:50.735Z,18.57
2018-12-03T01:01:35.137Z,18.30
2018-12-03T01:04:16.596Z,15.93
2018-12-03T01:06:57.167Z,16.50
2018-12-03T01:09:38.222Z,12.83
2018-12-03T01:12:19.193Z,15.37
2018-12-03T01:14:59.831Z,15.30
2018-12-03T01:17:40.654Z,14.83
2018-12-03T01:20:21.344Z,15.30
2018-12-03T01:23:01.818Z,18.47
2018-12-03T01:25:42.552Z,15.53
2018-12-03T01:28:24.277Z,20.20
2018-12-03T01:31:04.650Z,12.63
2018-12-03T01:33:45.530Z,12.73
2018-12-03T01:36:26.142Z,17.50
2018-12-03T01:39:06.993Z,14.20
2018-12-03T01:41:47.770Z,14.60
2018-12-03T01:44:28.245Z,17.73
2018-12-03T01:47:08.818Z,14.63
2018-12-03T01:49:49.347Z,13.07
2018-12-03T01:52:29.869Z,14.37
2018-12-03T01:55:11.033Z,15.20
2018-12-03T01:57:51.766Z,16.07
2018-12-03T02:00:32.512Z,15.77
2018-12-03T02:03:13.366Z,14.17
2018-12-03T02:05:54.227Z,12.97
2018-12-03T02:08:35.087Z,12.20
2018-12-03T02:11:16.187Z,14.00
2018-12-03T02:13:56.850Z,17.70
2018-12-03T02:16:37.887Z,16.37
2018-12-03T02:19:18.861Z,15.70
2018-12-03T02:21:59.590Z,15.63
2018-12-03T02:24:40.277Z,20.10
2018-12-03T02:27:21.356Z,14.60
2018-12-03T02:30:01.640Z,18.07
2018-12-03T02:32:42.387Z,15.40
2018-12-03T02:35:23.031Z,13.40
2018-12-03T02:38:03.766Z,16.27
2018-12-03T02:40:44.419Z,18.33
2018-12-03T02:43:24.695Z,15.73
2018-12-03T02:46:05.279Z,14.63
2018-12-03T02:48:46.363Z,13.93
2018-12-03T02:51:26.866Z,19.23
2018-12-03T02:54:07.850Z,19.70
2018-12-03T02:56:48.345Z,14.93
2018-12-03T02:59:29.606Z,21.03
2018-12-03T03:02:10.781Z,20.17
2018-12-03T03:04:51.774Z,19.30
2018-12-03T03:07:32.982Z,17.27
2018-12-03T03:10:13.849Z,16.43
2018-12-03T03:12:54.451Z,14.60
2018-12-03T03:15:35.768Z,16.73
2018-12-03T03:18:16.216Z,13.80
2018-12-03T03:20:57.231Z,14.53
2018-12-03T03:23:37.942Z,19.30
2018-12-03T03:26:18.729Z,16.23
2018-12-03T03:28:59.493Z,18.60
2018-12-03T03:31:40.589Z,19.30
2018-12-03T03:34:21.015Z,20.80
2018-12-03T03:37:01.844Z,19.90
2018-12-03T03:39:43.458Z,22.17
2018-12-03T03:42:23.955Z,19.07
2018-12-03T03:45:04.850Z,19.53
2018-12-03T03:47:45.991Z,23.17
2018-12-03T03:50:26.456Z,19.63
2018-12-03T03:53:07.546Z,22.63
2018-12-03T03:55:48.570Z,17.73
2018-12-03T03:58:28.974Z,21.40
2018-12-03T04:01:10.018Z,23.67
2018-12-03T04:03:51.262Z,18.37
2018-12-03T04:06:31.551Z,17.37
2018-12-03T04:09:12.235Z,17.73
2018-12-03T04:11:53.539Z,17.57
2018-12-03T04:14:34.370Z,18.17
2018-12-03T04:17:14.924Z,21.63
2018-12-03T04:19:55.239Z,20.20
2018-12-03T04:22:36.481Z,16.50
2018-12-03T04:25:17.256Z,20.57
2018-12-03T04:27:59.134Z,20.83
2018-12-03T04:30:40.199Z,21.47
2018-12-03T04:33:20.716Z,19.00
2018-12-03T04:36:01.526Z,18.83
2018-12-03T04:38:43.451Z,21.90
2018-12-03T04:41:24.211Z,20.03
2018-12-03T04:44:05.230Z,18.77
2018-12-03T04:46:45.660Z,18.57
2018-12-03T04:49:26.590Z,16.67
2018-12-03T04:52:06.942Z,25.43
2018-12-03T04:54:48.162Z,21.83
2018-12-03T04:57:29.542Z,19.37
2018-12-03T05:00:10.015Z,21.20
2018-12-03T05:02:50.782Z,24.13
2018-12-03T05:05:31.399Z,21.07
2018-12-03T05:08:12.204Z,21.80
2018-12-03T05:10:53.263Z,24.37
2018-12-03T05:13:34.510Z,21.50
2018-12-03T05:16:15.466Z,21.17
2018-12-03T05:18:56.475Z,18.70
2018-12-03T05:21:37.578Z,17.80
2018-12-03T05:24:18.151Z,18.90
2018-12-03T05:26:59.367Z,22.03
2018-12-03T05:29:40.341Z,19.97
2018-12-03T05:32:21.002Z,21.50
2018-12-03T05:35:01.747Z,20.13
2018-12-03T05:37:42.603Z,25.03
2018-12-03T05:40:23.427Z,18.57
2018-12-03T05:43:03.982Z,21.63
2018-12-03T05:45:46.040Z,25.53
2018-12-03T05:48:26.815Z,21.53
2018-12-03T05:51:07.518Z,19.67
2018-12-03T05:53:48.341Z,17.50
2018-12-03T05:56:29.204Z,16.10
2018-12-03T05:59:10.280Z,20.20
2018-12-03T06:01:50.978Z,18.53
2018-12-03T06:04:31.787Z,18.40
2018-12-03T06:07:12.744Z,16.07
2018-12-03T06:09:53.515Z,17.10
2018-12-03T06:12:34.136Z,14.13
2018-12-03T06:15:15.002Z,14.20
2018-12-03T06:17:55.627Z,17.93
2018-12-03T06:20:36.535Z,16.93
2018-12-03T06:23:19.490Z,19.70
2018-12-03T06:26:02.386Z,19.63
2018-12-03T06:28:44.462Z,17.97
2018-12-03T06:31:25.710Z,19.07
2018-12-03T06:34:06.433Z,17.10
2018-12-03T06:36:47.378Z,18.20
2018-12-03T06:39:28.975Z,17.10
2018-12-03T06:42:11.076Z,13.77
2018-12-03T06:44:52.634Z,17.23
2018-12-03T06:47:33.938Z,14.70
2018-12-03T06:50:15.274Z,17.60
2018-12-03T06:52:56.462Z,12.97
2018-12-03T06:55:37.234Z,12.97
2018-12-03T06:58:18.130Z,13.30
2018-12-03T07:00:58.870Z,14.33
2018-12-03T07:03:39.494Z,13.13
2018-12-03T07:06:20.403Z,10.60
2018-12-03T07:09:01.335Z,10.83
2018-12-03T07:11:42.278Z,11.73
2018-12-03T07:14:22.795Z,15.60
2018-12-03T07:17:03.660Z,9.97
2018-12-03T07:19:44.812Z,12.23
2018-12-03T07:22:25.460Z,15.03
2018-12-03T07:25:06.401Z,14.07
2018-12-03T07:27:46.947Z,13.83
2018-12-03T07:30:27.760Z,15.53
2018-12-03T07:33:08.626Z,11.97
2018-12-03T07:35:49.986Z,17.60
2018-12-03T07:38:32.113Z,19.87
2018-12-03T07:41:13.417Z,17.37
2018-12-03T07:43:54.680Z,21.23
2018-12-03T07:46:35.756Z,18.17
2018-12-03T07:49:16.663Z,18.60
2018-12-03T07:51:57.313Z,19.27
2018-12-03T07:54:37.855Z,25.13
2018-12-03T07:57:18.719Z,20.77
2018-12-03T08:00:00.082Z,18.80
2018-12-03T08:02:40.984Z,25.13
2018-12-03T08:05:21.951Z,21.50
2018-12-03T08:08:02.456Z,25.90
2018-12-03T08:10:42.832Z,21.43
2018-12-03T08:13:23.830Z,29.73
2018-12-03T08:16:04.466Z,30.40
2018-12-03T08:18:45.657Z,22.67
2018-12-03T08:21:26.942Z,31.20
2018-12-03T08:24:07.488Z,22.53
2018-12-03T08:26:48.041Z,19.77
2018-12-03T08:29:28.546Z,27.00
2018-12-03T08:32:09.767Z,22.70
2018-12-03T08:34:50.246Z,22.67
2018-12-03T08:37:30.850Z,21.73
2018-12-03T08:40:11.485Z,21.07
2018-12-03T08:42:51.971Z,20.67
2018-12-03T08:45:32.599Z,25.40
2018-12-03T08:48:13.116Z,28.67
2018-12-03T08:50:53.711Z,22.60
2018-12-03T08:53:34.232Z,26.00
2018-12-03T08:56:15.506Z,24.83
2018-12-03T08:58:56.092Z,25.43
2018-12-03T09:01:36.858Z,23.10
2018-12-03T09:04:19.028Z,26.47
2018-12-03T09:06:59.623Z,29.27
2018-12-03T09:09:40.255Z,23.67
2018-12-03T09:12:21.063Z,22.50
2018-12-03T09:15:04.631Z,22.67
2018-12-03T09:17:45.481Z,25.17
2018-12-03T09:20:26.410Z,21.07
2018-12-03T09:23:07.467Z,30.20
2018-12-03T09:25:48.266Z,25.30
2018-12-03T09:28:29.940Z,25.93
2018-12-03T09:31:12.999Z,24.37
2018-12-03T09:33:54.211Z,28.80
2018-12-03T09:36:34.851Z,25.60
2018-12-03T09:39:15.907Z,27.33
2018-12-03T09:41:57.082Z,27.37
2018-12-03T09:44:37.802Z,30.10
2018-12-03T09:47:18.457Z,24.07
2018-12-03T09:49:59.479Z,22.30
2018-12-03T09:52:40.725Z,23.93
2018-12-03T09:55:21.780Z,30.00
2018-12-03T09:58:02.737Z,23.30
2018-12-03T10:00:43.714Z,30.10
2018-12-03T10:03:24.485Z,19.07
2018-12-03T10:06:06.686Z,24.90
2018-12-03T10:08:47.642Z,19.50
2018-12-03T10:11:28.328Z,18.53
2018-12-03T10:14:14.890Z,21.10
2018-12-03T10:16:51.691Z,13.57
2018-12-03T10:19:32.754Z,11.60
2018-12-03T10:22:13.778Z,16.43
2018-12-03T10:24:54.976Z,14.00
2018-12-03T10:27:35.987Z,17.20
2018-12-03T10:30:16.526Z,12.33
2018-12-03T10:32:57.434Z,14.63
2018-12-03T10:35:38.515Z,15.23
2018-12-03T10:38:19.394Z,20.43
2018-12-03T10:41:00.376Z,18.10
2018-12-03T10:43:41.665Z,7.23
2018-12-03T10:46:22.710Z,6.13
2018-12-03T10:49:03.395Z,5.30
2018-12-03T10:51:44.091Z,5.83
2018-12-03T10:54:25.092Z,6.03
2018-12-03T10:57:05.542Z,3.60
2018-12-03T10:59:46.551Z,7.43
2018-12-03T11:02:33.906Z,7.30
2018-12-03T11:05:34.937Z,6.37
2018-12-03T11:08:17.688Z,3.23
2018-12-03T11:10:58.229Z,3.30
2018-12-03T11:13:39.453Z,2.63
2018-12-03T11:16:20.317Z,4.67
2018-12-03T11:19:01.288Z,4.77
2018-12-03T11:21:42.248Z,3.77
2018-12-03T11:24:24.076Z,2.30
2018-12-03T11:27:04.769Z,3.27
2018-12-03T11:29:45.218Z,4.83
2018-12-03T11:32:26.052Z,2.57
2018-12-03T11:35:06.774Z,2.10
2018-12-03T11:37:47.927Z,3.23
2018-12-03T11:40:28.307Z,2.00
2018-12-03T11:43:09.618Z,4.30
2018-12-03T11:45:50.971Z,3.63
2018-12-03T11:48:31.498Z,2.73
2018-12-03T11:51:12.595Z,2.70
2018-12-03T11:53:53.503Z,2.40
2018-12-03T11:56:33.966Z,3.40
2018-12-03T11:59:14.559Z,2.60
2018-12-03T12:01:55.471Z,2.50
2018-12-03T12:04:36.086Z,2.57
2018-12-03T12:07:16.951Z,3.73
2018-12-03T12:09:57.764Z,2.63
2018-12-03T12:12:41.712Z,3.83
2018-12-03T12:15:22.970Z,3.53
2018-12-03T12:18:03.520Z,2.40
2018-12-03T12:20:44.396Z,4.50
2018-12-03T12:23:25.107Z,3.63
2018-12-03T12:26:05.568Z,2.30
2018-12-03T12:28:46.918Z,4.77
2018-12-03T12:31:28.303Z,2.30
2018-12-03T12:34:09.036Z,2.37
2018-12-03T12:36:49.862Z,2.50
2018-12-03T12:39:30.533Z,2.93
2018-12-03T12:42:11.115Z,3.23
2018-12-03T12:44:52.027Z,4.57
2018-12-03T12:47:32.846Z,5.90
2018-12-03T12:50:13.607Z,5.97
2018-12-03T12:52:54.400Z,3.83
2018-12-03T12:55:34.922Z,6.87
2018-12-03T12:58:15.586Z,5.57
2018-12-03T13:00:56.051Z,8.83
2018-12-03T13:03:37.343Z,7.37
2018-12-03T13:06:18.684Z,5.50
2018-12-03T13:08:59.747Z,7.87
2018-12-03T13:11:40.493Z,5.40
2018-12-03T13:14:21.444Z,6.57
2018-12-03T13:17:02.599Z,7.07
2018-12-03T13:19:43.062Z,6.80
2018-12-03T13:22:23.966Z,8.40
2018-12-03T13:25:05.320Z,7.87
2018-12-03T13:27:46.056Z,9.13
2018-12-03T13:30:26.577Z,9.03
2018-12-03T13:33:07.678Z,11.73
2018-12-03T13:35:48.911Z,8.33
2018-12-03T13:38:29.754Z,9.40
2018-12-03T13:41:10.643Z,11.37
2018-12-03T13:43:51.255Z,10.10
2018-12-03T13:46:32.495Z,10.03
2018-12-03T13:49:13.180Z,12.40
2018-12-03T13:51:53.586Z,15.13
2018-12-03T13:54:34.138Z,10.53
2018-12-03T13:57:14.673Z,10.97
2018-12-03T13:59:55.174Z,15.83
2018-12-03T14:02:36.284Z,12.77
2018-12-03T14:05:17.168Z,17.17
2018-12-03T14:07:58.030Z,15.77
2018-12-03T14:10:38.861Z,14.00
2018-12-03T14:13:19.831Z,16.80
2018-12-03T14:16:00.631Z,19.17
2018-12-03T14:18:41.517Z,16.83
2018-12-03T14:21:22.464Z,21.93
2018-12-03T14:24:02.866Z,19.03
2018-12-03T14:26:43.532Z,17.13
2018-12-03T14:29:24.132Z,18.00
2018-12-03T14:32:05.043Z,19.77
2018-12-03T14:34:45.839Z,19.07
2018-12-03T14:37:29.331Z,17.17
2018-12-03T14:40:11.348Z,13.37
2018-12-03T14:42:54.005Z,15.23
2018-12-03T14:45:34.799Z,19.80
2018-12-03T14:48:16.019Z,19.47
2018-12-03T14:50:56.960Z,20.83
2018-12-03T14:53:37.678Z,23.60
2018-12-03T14:56:18.419Z,18.87
2018-12-03T14:58:59.070Z,16.53
2018-12-03T15:01:39.568Z,17.83
2018-12-03T15:04:20.347Z,18.03
2018-12-03T15:07:02.486Z,17.30
2018-12-03T15:09:46.111Z,17.20
2018-12-03T15:12:27.046Z,19.20
2018-12-03T15:15:07.716Z,18.70
2018-12-03T15:17:48.590Z,21.70
2018-12-03T15:20:29.327Z,19.70
2018-12-03T15:23:10.150Z,20.60
2018-12-03T15:25:52.533Z,22.43
2018-12-03T15:28:32.971Z,20.37
2018-12-03T15:31:13.883Z,19.97
2018-12-03T15:33:55.107Z,20.03
2018-12-03T15:36:36.057Z,19.43
2018-12-03T15:39:17.067Z,18.30
2018-12-03T15:41:58.228Z,20.63
2018-12-03T15:44:39.132Z,18.30
2018-12-03T15:47:19.980Z,19.90
2018-12-03T15:50:04.816Z,21.17
2018-12-03T15:52:50.096Z,23.30
2018-12-03T15:55:31.110Z,17.07
2018-12-03T15:58:12.024Z,21.23
2018-12-03T16:00:52.690Z,16.23
2018-12-03T16:03:38.949Z,19.17
2018-12-03T16:06:20.031Z,21.67
2018-12-03T16:09:01.302Z,16.63
2018-12-03T16:11:43.523Z,17.00
2018-12-03T16:14:24.120Z,17.70
2018-12-03T16:17:11.288Z,12.57
2018-12-03T16:19:52.435Z,22.80
2018-12-03T16:22:33.198Z,20.77
2018-12-03T16:25:13.694Z,18.17
2018-12-03T16:27:54.767Z,19.83
2018-12-03T16:30:35.582Z,19.00
2018-12-03T16:33:17.640Z,19.73
2018-12-03T16:35:58.512Z,23.07
2018-12-03T16:38:41.373Z,19.40
2018-12-03T16:41:22.483Z,21.53
2018-12-03T16:44:07.371Z,22.53
2018-12-03T16:46:51.216Z,24.33
2018-12-03T16:49:32.140Z,22.83
2018-12-03T16:52:15.971Z,21.20
2018-12-03T16:54:57.138Z,17.53
2018-12-03T16:57:37.767Z,22.73
2018-12-03T17:00:19.758Z,17.73
2018-12-03T17:03:00.509Z,20.43
2018-12-03T17:05:42.878Z,18.43
2018-12-03T17:08:28.642Z,19.97
2018-12-03T17:11:11.105Z,20.30
2018-12-03T17:13:52.473Z,24.30
2018-12-03T17:16:35.450Z,25.70
2018-12-03T17:19:18.280Z,20.20
2018-12-03T17:22:02.869Z,20.27
2018-12-03T17:24:43.888Z,20.67
2018-12-03T17:27:24.931Z,22.03
2018-12-03T17:30:07.508Z,21.17
2018-12-03T17:32:50.096Z,17.83
2018-12-03T17:35:33.111Z,24.87
2018-12-03T17:38:16.231Z,21.90
2018-12-03T17:41:02.143Z,17.80
2018-12-03T17:43:43.158Z,26.47
2018-12-03T17:46:25.777Z,19.70
2018-12-03T17:49:06.426Z,23.77
2018-12-03T17:51:52.761Z,20.67
2018-12-03T17:54:33.421Z,20.40
2018-12-03T17:57:13.955Z,27.10
2018-12-03T17:59:59.637Z,25.53
2018-12-03T18:02:41.673Z,23.13
2018-12-03T18:05:23.411Z,19.13
2018-12-03T18:08:04.144Z,20.27
2018-12-03T18:10:48.395Z,22.10
2018-12-03T18:13:32.459Z,24.57
2018-12-03T18:16:23.141Z,23.47
2018-12-03T18:19:07.770Z,20.57
2018-12-03T18:21:48.609Z,21.90
2018-12-03T18:24:35.728Z,28.10
2018-12-03T18:27:22.962Z,32.13
2018-12-03T18:30:05.267Z,28.20
2018-12-03T18:32:50.751Z,27.87
2018-12-03T18:35:31.919Z,23.37
2018-12-03T18:38:13.137Z,24.67
2018-12-03T18:40:56.963Z,25.00
2018-12-03T18:43:38.987Z,26.80
2018-12-03T18:46:20.419Z,26.20
2018-12-03T18:49:07.670Z,24.67
2018-12-03T18:51:52.571Z,20.90
2018-12-03T18:54:34.633Z,27.40
2018-12-03T18:57:24.126Z,23.83
2018-12-03T19:00:05.099Z,22.40
2018-12-03T19:02:48.960Z,23.33
2018-12-03T19:05:35.897Z,23.10
2018-12-03T19:08:17.757Z,18.83
2018-12-03T19:11:00.603Z,20.43
2018-12-03T19:13:43.196Z,21.07
2018-12-03T19:16:28.087Z,15.83
2018-12-03T19:22:29.904Z,18.47
2018-12-03T19:25:16.987Z,17.17
2018-12-03T19:28:00.461Z,15.80
2018-12-03T19:31:06.727Z,18.07
2018-12-03T19:33:52.076Z,16.80
2018-12-03T19:36:54.813Z,14.43
2018-12-03T19:39:38.165Z,15.23
2018-12-03T19:42:22.586Z,16.80
2018-12-03T19:45:05.552Z,15.27
2018-12-03T19:47:49.184Z,17.93
2018-12-03T19:50:34.419Z,14.47
2018-12-03T19:53:20.149Z,16.83
2018-12-03T19:56:02.997Z,17.93
2018-12-03T19:58:46.222Z,15.73
2018-12-03T20:01:30.428Z,20.20
2018-12-03T20:04:51.028Z,18.90
2018-12-03T20:07:32.169Z,22.50
2018-12-03T20:10:16.381Z,20.53
2018-12-03T20:18:59.107Z,24.67
2018-12-03T20:21:47.371Z,23.33
2018-12-03T20:24:30.203Z,23.07
2018-12-03T20:27:19.362Z,21.03
2018-12-03T20:30:00.616Z,22.67
2018-12-03T20:32:41.729Z,29.07
2018-12-03T20:35:25.855Z,22.70
2018-12-03T20:38:08.925Z,26.93
2018-12-03T20:44:30.138Z,18.60
2018-12-03T20:47:11.336Z,17.20
2018-12-03T20:49:58.750Z,18.70
2018-12-03T20:52:40.217Z,18.57
2018-12-03T20:55:20.511Z,19.63
2018-12-03T20:58:01.877Z,14.30
2018-12-03T21:00:43.348Z,15.90
2018-12-03T21:03:24.616Z,16.13
2018-12-03T21:06:12.066Z,16.33
2018-12-03T21:08:53.378Z,13.47
2018-12-03T21:11:34.929Z,15.37
2018-12-03T21:14:20.002Z,19.97
2018-12-03T21:17:02.415Z,18.00
2018-12-03T21:19:47.722Z,17.17
2018-12-03T21:22:28.724Z,19.13
2018-12-03T21:25:15.834Z,16.97
2018-12-03T21:28:01.507Z,17.77
2018-12-03T21:30:44.746Z,21.43
2018-12-03T21:33:30.041Z,16.47
2018-12-03T21:36:14.309Z,16.60
2018-12-03T21:38:55.188Z,20.23
2018-12-03T21:41:36.285Z,16.53
2018-12-03T21:44:17.745Z,18.77
2018-12-03T21:47:07.201Z,21.77
2018-12-03T21:49:51.009Z,18.50
2018-12-03T21:52:35.195Z,18.37
2018-12-03T21:55:16.682Z,21.73
2018-12-03T21:57:57.547Z,19.37
2018-12-03T22:00:43.226Z,18.83
2018-12-03T22:03:24.502Z,23.17
2018-12-03T22:06:07.007Z,25.87
2018-12-03T22:08:49.532Z,30.67
2018-12-03T22:11:30.928Z,23.03
2018-12-03T22:14:12.110Z,26.77
2018-12-03T22:16:52.648Z,28.67
2018-12-03T22:19:42.427Z,22.03
2018-12-03T22:22:26.116Z,22.60
2018-12-03T22:25:07.703Z,20.33
2018-12-03T22:27:52.996Z,20.73
2018-12-03T22:30:34.427Z,19.17
2018-12-03T22:33:15.139Z,24.60
2018-12-03T22:35:56.053Z,20.07
2018-12-03T22:38:37.450Z,22.27
2018-12-03T22:41:18.415Z,20.70
2018-12-03T22:43:59.449Z,25.13
2018-12-03T22:46:40.068Z,18.17
2018-12-03T22:49:24.470Z,20.97
2018-12-03T22:52:04.972Z,19.87
2018-12-03T22:54:46.132Z,20.90
2018-12-03T22:57:26.754Z,20.37
2018-12-03T23:00:10.035Z,21.97
2018-12-03T23:02:51.771Z,15.37
2018-12-03T23:05:32.481Z,18.97
2018-12-03T23:08:13.182Z,18.23
2018-12-03T23:10:53.691Z,18.77
2018-12-03T23:13:34.390Z,16.53
2018-12-03T23:16:15.307Z,14.37
2018-12-03T23:19:29.393Z,19.30
2018-12-03T23:21:57.331Z,19.80
2018-12-03T23:24:25.251Z,18.80
2018-12-03T23:26:53.477Z,21.67
2018-12-03T23:29:21.436Z,20.30
2018-12-03T23:31:49.343Z,24.73
2018-12-03T23:34:17.248Z,24.03
2018-12-03T23:36:45.141Z,27.80
2018-12-03T23:39:13.036Z,27.07
2018-12-03T23:41:40.953Z,18.10
2018-12-03T23:44:08.856Z,25.00
2018-12-03T23:46:36.757Z,29.17
2018-12-03T23:49:04.676Z,20.37
2018-12-03T23:51:36.170Z,24.20
2018-12-03T23:54:02.493Z,16.90
2018-12-03T23:56:30.439Z,19.53
2018-12-03T23:58:58.367Z,21.20
